sensor_id;sensor_type;location;lat;lon;timestamp;pressure;altitude;pressure_sealevel;temperature;humidity
36454;BME280;22478;51.740;-1.314;2023-05-13T00:01:59;101424.24;;;3.40;100.00
36454;BME280;22478;51.740;-1.314;2023-05-13T00:04:27;101427.67;;;4.01;100.00
36454;BME280;22478;51.740;-1.314;2023-05-13T00:06:54;101435.02;;;2.88;100.00
36454;BME280;22478;51.740;-1.314;2023-05-13T00:09:21;101437.42;;;3.26;100.00
36454;BME280;22478;51.740;-1.314;2023-05-13T00:11:48;101421.96;;;4.16;100.00
36454;BME280;22478;51.740;-1.314;2023-05-13T00:14:16;101422.91;;;4.96;100.00
36454;BME280;22478;51.740;-1.314;2023-05-13T00:16:43;101422.20;;;4.07;100.00
36454;BME280;22478;51.740;-1.314;2023-05-13T00:19:10;101421.76;;;4.24;100.00
36454;BME280;22478;51.740;-1.314;2023-05-13T00:21:37;101428.53;;;3.91;100.00
36454;BME280;22478;51.740;-1.314;2023-05-13T00:24:05;101433.15;;;5.32;100.00
36454;BME280;22478;51.740;-1.314;2023-05-13T00:26:32;101433.24;;;2.90;100.00
36454;BME280;22478;51.740;-1.314;2023-05-13T00:28:59;101441.83;;;2.67;100.00
36454;BME280;22478;51.740;-1.314;2023-05-13T00:31:27;101431.05;;;3.20;100.00
36454;BME280;22478;51.740;-1.314;2023-05-13T00:33:54;101439.03;;;2.21;100.00
36454;BME280;22478;51.740;-1.314;2023-05-13T00:36:22;101425.38;;;3.89;100.00
36454;BME280;22478;51.740;-1.314;2023-05-13T00:38:49;101426.38;;;3.26;100.00
36454;BME280;22478;51.740;-1.314;2023-05-13T00:41:16;101430.22;;;2.72;100.00
36454;BME280;22478;51.740;-1.314;2023-05-13T00:43:44;101423.52;;;3.73;100.00
36454;BME280;22478;51.740;-1.314;2023-05-13T00:46:11;101425.91;;;3.57;100.00
36454;BME280;22478;51.740;-1.314;2023-05-13T00:48:38;101425.10;;;2.80;100.00
36454;BME280;22478;51.740;-1.314;2023-05-13T00:51:06;101417.98;;;4.48;100.00
36454;BME280;22478;51.740;-1.314;2023-05-13T00:53:34;101419.72;;;3.54;100.00
36454;BME280;22478;51.740;-1.314;2023-05-13T00:56:02;101413.52;;;5.23;100.00
36454;BME280;22478;51.740;-1.314;2023-05-13T00:58:30;101423.63;;;4.45;100.00
36454;BME280;22478;51.740;-1.314;2023-05-13T01:01:03;101426.75;;;4.35;100.00
36454;BME280;22478;51.740;-1.314;2023-05-13T01:03:37;101424.65;;;4.45;100.00
36454;BME280;22478;51.740;-1.314;2023-05-13T01:06:11;101430.55;;;2.41;100.00
36454;BME280;22478;51.740;-1.314;2023-05-13T01:08:48;101434.26;;;2.67;100.00
36454;BME280;22478;51.740;-1.314;2023-05-13T01:11:21;101438.14;;;1.27;100.00
36454;BME280;22478;51.740;-1.314;2023-05-13T01:13:56;101443.50;;;1.95;100.00
36454;BME280;22478;51.740;-1.314;2023-05-13T01:16:31;101436.89;;;1.53;100.00
36454;BME280;22478;51.740;-1.314;2023-05-13T01:19:06;101433.47;;;1.81;100.00
36454;BME280;22478;51.740;-1.314;2023-05-13T01:21:38;101427.92;;;3.52;100.00
36454;BME280;22478;51.740;-1.314;2023-05-13T01:24:05;101420.53;;;3.93;100.00
36454;BME280;22478;51.740;-1.314;2023-05-13T01:26:33;101419.69;;;3.09;100.00
36454;BME280;22478;51.740;-1.314;2023-05-13T01:29:00;101401.50;;;6.36;100.00
36454;BME280;22478;51.740;-1.314;2023-05-13T01:31:28;101410.42;;;3.11;100.00
36454;BME280;22478;51.740;-1.314;2023-05-13T01:33:56;101419.25;;;2.67;100.00
36454;BME280;22478;51.740;-1.314;2023-05-13T01:36:24;101417.27;;;2.48;100.00
36454;BME280;22478;51.740;-1.314;2023-05-13T01:38:51;101418.04;;;2.34;100.00
36454;BME280;22478;51.740;-1.314;2023-05-13T01:41:20;101414.06;;;2.47;100.00
36454;BME280;22478;51.740;-1.314;2023-05-13T01:43:48;101416.33;;;4.08;100.00
36454;BME280;22478;51.740;-1.314;2023-05-13T01:46:15;101421.61;;;1.50;100.00
36454;BME280;22478;51.740;-1.314;2023-05-13T01:48:42;101421.82;;;1.94;100.00
36454;BME280;22478;51.740;-1.314;2023-05-13T01:51:10;101416.11;;;3.29;100.00
36454;BME280;22478;51.740;-1.314;2023-05-13T01:53:37;101421.91;;;2.26;100.00
36454;BME280;22478;51.740;-1.314;2023-05-13T01:56:07;101422.10;;;1.99;100.00
36454;BME280;22478;51.740;-1.314;2023-05-13T01:58:34;101425.97;;;1.82;100.00
36454;BME280;22478;51.740;-1.314;2023-05-13T02:01:02;101419.04;;;3.86;100.00
36454;BME280;22478;51.740;-1.314;2023-05-13T02:03:29;101411.12;;;3.53;100.00
36454;BME280;22478;51.740;-1.314;2023-05-13T02:05:57;101410.58;;;3.42;100.00
36454;BME280;22478;51.740;-1.314;2023-05-13T02:08:25;101423.95;;;2.16;100.00
36454;BME280;22478;51.740;-1.314;2023-05-13T02:10:55;101424.11;;;2.11;100.00
36454;BME280;22478;51.740;-1.314;2023-05-13T02:13:24;101419.97;;;2.66;100.00
36454;BME280;22478;51.740;-1.314;2023-05-13T02:15:52;101409.06;;;5.26;100.00
36454;BME280;22478;51.740;-1.314;2023-05-13T02:18:19;101407.57;;;4.34;100.00
36454;BME280;22478;51.740;-1.314;2023-05-13T02:20:47;101409.31;;;2.58;100.00
36454;BME280;22478;51.740;-1.314;2023-05-13T02:23:14;101414.04;;;2.49;100.00
36454;BME280;22478;51.740;-1.314;2023-05-13T02:25:42;101419.99;;;1.58;100.00
36454;BME280;22478;51.740;-1.314;2023-05-13T02:28:09;101417.86;;;2.06;100.00
36454;BME280;22478;51.740;-1.314;2023-05-13T02:30:37;101408.24;;;2.19;100.00
36454;BME280;22478;51.740;-1.314;2023-05-13T02:33:05;101402.92;;;3.82;100.00
36454;BME280;22478;51.740;-1.314;2023-05-13T02:35:32;101409.29;;;2.73;100.00
36454;BME280;22478;51.740;-1.314;2023-05-13T02:38:00;101408.52;;;3.98;100.00
36454;BME280;22478;51.740;-1.314;2023-05-13T02:40:28;101426.74;;;1.55;100.00
36454;BME280;22478;51.740;-1.314;2023-05-13T02:42:55;101428.70;;;2.48;100.00
36454;BME280;22478;51.740;-1.314;2023-05-13T02:45:22;101418.88;;;3.43;100.00
36454;BME280;22478;51.740;-1.314;2023-05-13T02:47:50;101427.21;;;2.30;100.00
36454;BME280;22478;51.740;-1.314;2023-05-13T02:50:18;101424.82;;;2.46;100.00
36454;BME280;22478;51.740;-1.314;2023-05-13T02:52:45;101419.70;;;3.20;100.00
36454;BME280;22478;51.740;-1.314;2023-05-13T02:55:12;101424.83;;;2.96;100.00
36454;BME280;22478;51.740;-1.314;2023-05-13T02:57:41;101429.03;;;2.31;100.00
36454;BME280;22478;51.740;-1.314;2023-05-13T03:00:10;101422.07;;;2.71;100.00
36454;BME280;22478;51.740;-1.314;2023-05-13T03:02:37;101423.79;;;2.17;100.00
36454;BME280;22478;51.740;-1.314;2023-05-13T03:05:05;101417.99;;;2.17;100.00
36454;BME280;22478;51.740;-1.314;2023-05-13T03:07:33;101406.75;;;3.94;100.00
36454;BME280;22478;51.740;-1.314;2023-05-13T03:10:00;101411.28;;;2.73;100.00
36454;BME280;22478;51.740;-1.314;2023-05-13T03:12:28;101412.50;;;1.93;100.00
36454;BME280;22478;51.740;-1.314;2023-05-13T03:14:55;101417.67;;;0.90;100.00
36454;BME280;22478;51.740;-1.314;2023-05-13T03:17:23;101413.41;;;2.07;100.00
36454;BME280;22478;51.740;-1.314;2023-05-13T03:19:51;101420.80;;;2.45;100.00
36454;BME280;22478;51.740;-1.314;2023-05-13T03:22:19;101413.37;;;2.90;100.00
36454;BME280;22478;51.740;-1.314;2023-05-13T03:24:46;101414.49;;;2.37;100.00
36454;BME280;22478;51.740;-1.314;2023-05-13T03:27:14;101410.15;;;2.97;100.00
36454;BME280;22478;51.740;-1.314;2023-05-13T03:29:42;101411.41;;;2.54;100.00
36454;BME280;22478;51.740;-1.314;2023-05-13T03:32:09;101406.56;;;3.19;100.00
36454;BME280;22478;51.740;-1.314;2023-05-13T03:34:36;101396.84;;;4.67;100.00
36454;BME280;22478;51.740;-1.314;2023-05-13T03:37:04;101408.04;;;2.34;100.00
36454;BME280;22478;51.740;-1.314;2023-05-13T03:39:31;101410.51;;;1.44;100.00
36454;BME280;22478;51.740;-1.314;2023-05-13T03:41:58;101412.69;;;3.94;100.00
36454;BME280;22478;51.740;-1.314;2023-05-13T03:44:26;101417.51;;;2.09;100.00
36454;BME280;22478;51.740;-1.314;2023-05-13T03:46:53;101412.86;;;2.64;100.00
36454;BME280;22478;51.740;-1.314;2023-05-13T03:49:21;101399.68;;;4.68;100.00
36454;BME280;22478;51.740;-1.314;2023-05-13T03:51:49;101413.13;;;2.15;100.00
36454;BME280;22478;51.740;-1.314;2023-05-13T03:54:16;101412.34;;;1.83;100.00
36454;BME280;22478;51.740;-1.314;2023-05-13T03:56:43;101401.85;;;3.94;100.00
36454;BME280;22478;51.740;-1.314;2023-05-13T03:59:10;101413.67;;;1.60;100.00
36454;BME280;22478;51.740;-1.314;2023-05-13T04:01:38;101417.30;;;2.14;100.00
36454;BME280;22478;51.740;-1.314;2023-05-13T04:04:06;101416.05;;;3.44;100.00
36454;BME280;22478;51.740;-1.314;2023-05-13T04:06:33;101413.59;;;2.88;100.00
36454;BME280;22478;51.740;-1.314;2023-05-13T04:09:00;101413.78;;;3.06;100.00
36454;BME280;22478;51.740;-1.314;2023-05-13T04:11:27;101423.27;;;3.75;100.00
36454;BME280;22478;51.740;-1.314;2023-05-13T04:13:55;101426.60;;;2.29;100.00
36454;BME280;22478;51.740;-1.314;2023-05-13T04:16:23;101432.20;;;2.47;100.00
36454;BME280;22478;51.740;-1.314;2023-05-13T04:18:50;101433.42;;;1.72;100.00
36454;BME280;22478;51.740;-1.314;2023-05-13T04:21:17;101438.23;;;2.22;100.00
36454;BME280;22478;51.740;-1.314;2023-05-13T04:23:44;101437.65;;;1.92;100.00
36454;BME280;22478;51.740;-1.314;2023-05-13T04:26:11;101434.14;;;2.05;100.00
36454;BME280;22478;51.740;-1.314;2023-05-13T04:28:38;101430.72;;;3.19;100.00
36454;BME280;22478;51.740;-1.314;2023-05-13T04:31:06;101432.65;;;2.54;100.00
36454;BME280;22478;51.740;-1.314;2023-05-13T04:33:33;101439.60;;;2.73;100.00
36454;BME280;22478;51.740;-1.314;2023-05-13T04:36:00;101438.95;;;2.58;100.00
36454;BME280;22478;51.740;-1.314;2023-05-13T04:38:29;101433.08;;;3.82;100.00
36454;BME280;22478;51.740;-1.314;2023-05-13T04:40:56;101439.44;;;2.18;100.00
36454;BME280;22478;51.740;-1.314;2023-05-13T04:43:23;101443.12;;;2.16;100.00
36454;BME280;22478;51.740;-1.314;2023-05-13T04:45:50;101426.54;;;4.85;100.00
36454;BME280;22478;51.740;-1.314;2023-05-13T04:48:17;101425.59;;;4.09;100.00
36454;BME280;22478;51.740;-1.314;2023-05-13T04:50:45;101435.53;;;2.63;100.00
36454;BME280;22478;51.740;-1.314;2023-05-13T04:53:13;101429.27;;;4.24;100.00
36454;BME280;22478;51.740;-1.314;2023-05-13T04:55:41;101440.54;;;2.33;100.00
36454;BME280;22478;51.740;-1.314;2023-05-13T04:58:08;101442.14;;;2.39;100.00
36454;BME280;22478;51.740;-1.314;2023-05-13T05:00:36;101432.12;;;3.91;100.00
36454;BME280;22478;51.740;-1.314;2023-05-13T05:03:03;101445.50;;;1.67;100.00
36454;BME280;22478;51.740;-1.314;2023-05-13T05:05:30;101433.41;;;3.47;100.00
36454;BME280;22478;51.740;-1.314;2023-05-13T05:07:57;101427.31;;;4.42;100.00
36454;BME280;22478;51.740;-1.314;2023-05-13T05:10:24;101424.85;;;5.65;100.00
36454;BME280;22478;51.740;-1.314;2023-05-13T05:12:52;101429.36;;;5.61;100.00
36454;BME280;22478;51.740;-1.314;2023-05-13T05:15:19;101433.88;;;3.10;100.00
36454;BME280;22478;51.740;-1.314;2023-05-13T05:17:47;101439.48;;;2.20;100.00
36454;BME280;22478;51.740;-1.314;2023-05-13T05:20:14;101435.63;;;2.90;100.00
36454;BME280;22478;51.740;-1.314;2023-05-13T05:22:41;101434.86;;;3.99;100.00
36454;BME280;22478;51.740;-1.314;2023-05-13T05:25:10;101433.62;;;3.27;100.00
36454;BME280;22478;51.740;-1.314;2023-05-13T05:27:37;101437.20;;;2.85;100.00
36454;BME280;22478;51.740;-1.314;2023-05-13T05:30:05;101434.90;;;2.94;100.00
36454;BME280;22478;51.740;-1.314;2023-05-13T05:32:32;101436.94;;;2.61;100.00
36454;BME280;22478;51.740;-1.314;2023-05-13T05:35:00;101448.14;;;1.03;100.00
36454;BME280;22478;51.740;-1.314;2023-05-13T05:37:29;101445.09;;;2.68;100.00
36454;BME280;22478;51.740;-1.314;2023-05-13T05:39:56;101435.82;;;4.05;100.00
36454;BME280;22478;51.740;-1.314;2023-05-13T05:42:23;101453.59;;;2.02;100.00
36454;BME280;22478;51.740;-1.314;2023-05-13T05:44:50;101454.54;;;3.23;100.00
36454;BME280;22478;51.740;-1.314;2023-05-13T05:47:17;101444.85;;;3.13;100.00
36454;BME280;22478;51.740;-1.314;2023-05-13T05:49:44;101454.86;;;3.47;100.00
36454;BME280;22478;51.740;-1.314;2023-05-13T05:52:11;101459.33;;;2.27;100.00
36454;BME280;22478;51.740;-1.314;2023-05-13T05:54:39;101447.80;;;3.76;100.00
36454;BME280;22478;51.740;-1.314;2023-05-13T05:57:06;101451.91;;;4.49;100.00
36454;BME280;22478;51.740;-1.314;2023-05-13T05:59:33;101451.52;;;3.40;100.00
36454;BME280;22478;51.740;-1.314;2023-05-13T06:02:01;101463.13;;;2.09;100.00
36454;BME280;22478;51.740;-1.314;2023-05-13T06:04:28;101463.31;;;3.08;100.00
36454;BME280;22478;51.740;-1.314;2023-05-13T06:06:55;101462.11;;;3.15;100.00
36454;BME280;22478;51.740;-1.314;2023-05-13T06:09:22;101457.01;;;3.12;100.00
36454;BME280;22478;51.740;-1.314;2023-05-13T06:11:49;101461.64;;;2.32;100.00
36454;BME280;22478;51.740;-1.314;2023-05-13T06:14:16;101463.17;;;2.68;100.00
36454;BME280;22478;51.740;-1.314;2023-05-13T06:16:44;101470.90;;;3.02;100.00
36454;BME280;22478;51.740;-1.314;2023-05-13T06:19:11;101466.01;;;4.80;100.00
36454;BME280;22478;51.740;-1.314;2023-05-13T06:21:39;101459.47;;;4.51;100.00
36454;BME280;22478;51.740;-1.314;2023-05-13T06:24:07;101466.94;;;3.43;100.00
36454;BME280;22478;51.740;-1.314;2023-05-13T06:26:34;101468.35;;;3.74;100.00
36454;BME280;22478;51.740;-1.314;2023-05-13T06:29:02;101477.95;;;3.16;100.00
36454;BME280;22478;51.740;-1.314;2023-05-13T06:31:29;101469.70;;;4.21;100.00
36454;BME280;22478;51.740;-1.314;2023-05-13T06:33:57;101469.17;;;4.84;100.00
36454;BME280;22478;51.740;-1.314;2023-05-13T06:36:25;101471.74;;;3.85;100.00
36454;BME280;22478;51.740;-1.314;2023-05-13T06:38:52;101488.58;;;2.40;100.00
36454;BME280;22478;51.740;-1.314;2023-05-13T06:41:19;101481.87;;;4.49;100.00
36454;BME280;22478;51.740;-1.314;2023-05-13T06:43:46;101480.53;;;3.69;100.00
36454;BME280;22478;51.740;-1.314;2023-05-13T06:46:13;101479.40;;;5.14;100.00
36454;BME280;22478;51.740;-1.314;2023-05-13T06:48:41;101481.88;;;4.61;100.00
36454;BME280;22478;51.740;-1.314;2023-05-13T06:51:08;101489.41;;;3.49;100.00
36454;BME280;22478;51.740;-1.314;2023-05-13T06:53:35;101489.49;;;3.79;100.00
36454;BME280;22478;51.740;-1.314;2023-05-13T06:56:03;101492.01;;;3.70;100.00
36454;BME280;22478;51.740;-1.314;2023-05-13T06:58:30;101485.31;;;4.80;100.00
36454;BME280;22478;51.740;-1.314;2023-05-13T07:00:58;101492.97;;;3.57;100.00
36454;BME280;22478;51.740;-1.314;2023-05-13T07:03:25;101505.35;;;2.35;100.00
36454;BME280;22478;51.740;-1.314;2023-05-13T07:05:52;101504.37;;;3.22;100.00
36454;BME280;22478;51.740;-1.314;2023-05-13T07:08:19;101504.52;;;1.86;100.00
36454;BME280;22478;51.740;-1.314;2023-05-13T07:10:47;101495.39;;;4.15;100.00
36454;BME280;22478;51.740;-1.314;2023-05-13T07:13:14;101501.82;;;4.69;100.00
36454;BME280;22478;51.740;-1.314;2023-05-13T07:15:41;101512.56;;;3.24;100.00
36454;BME280;22478;51.740;-1.314;2023-05-13T07:18:09;101501.05;;;4.24;100.00
36454;BME280;22478;51.740;-1.314;2023-05-13T07:20:36;101507.16;;;3.06;100.00
36454;BME280;22478;51.740;-1.314;2023-05-13T07:23:03;101498.69;;;4.99;100.00
36454;BME280;22478;51.740;-1.314;2023-05-13T07:25:31;101504.45;;;3.48;100.00
36454;BME280;22478;51.740;-1.314;2023-05-13T07:27:58;101508.49;;;3.11;100.00
36454;BME280;22478;51.740;-1.314;2023-05-13T07:30:26;101496.77;;;4.23;100.00
36454;BME280;22478;51.740;-1.314;2023-05-13T07:32:54;101492.24;;;3.87;100.00
36454;BME280;22478;51.740;-1.314;2023-05-13T07:35:21;101497.96;;;4.02;100.00
36454;BME280;22478;51.740;-1.314;2023-05-13T07:37:48;101501.19;;;3.49;100.00
36454;BME280;22478;51.740;-1.314;2023-05-13T07:40:16;101502.22;;;2.82;100.00
36454;BME280;22478;51.740;-1.314;2023-05-13T07:42:43;101501.16;;;2.89;100.00
36454;BME280;22478;51.740;-1.314;2023-05-13T07:45:11;101495.60;;;1.94;100.00
36454;BME280;22478;51.740;-1.314;2023-05-13T07:47:39;101483.90;;;3.80;100.00
36454;BME280;22478;51.740;-1.314;2023-05-13T07:50:07;101498.68;;;3.45;100.00
36454;BME280;22478;51.740;-1.314;2023-05-13T07:52:34;101499.25;;;3.33;100.00
36454;BME280;22478;51.740;-1.314;2023-05-13T07:55:01;101502.30;;;2.98;100.00
36454;BME280;22478;51.740;-1.314;2023-05-13T07:57:28;101505.93;;;3.29;100.00
36454;BME280;22478;51.740;-1.314;2023-05-13T07:59:55;101510.28;;;2.18;100.00
36454;BME280;22478;51.740;-1.314;2023-05-13T08:02:22;101509.91;;;2.85;100.00
36454;BME280;22478;51.740;-1.314;2023-05-13T08:04:50;101512.54;;;2.32;100.00
36454;BME280;22478;51.740;-1.314;2023-05-13T08:07:17;101515.36;;;3.54;100.00
36454;BME280;22478;51.740;-1.314;2023-05-13T08:09:45;101510.48;;;3.18;100.00
36454;BME280;22478;51.740;-1.314;2023-05-13T08:12:12;101498.74;;;4.07;100.00
36454;BME280;22478;51.740;-1.314;2023-05-13T08:14:39;101505.99;;;2.58;100.00
36454;BME280;22478;51.740;-1.314;2023-05-13T08:17:06;101498.16;;;4.32;100.00
36454;BME280;22478;51.740;-1.314;2023-05-13T08:19:35;101505.41;;;3.52;100.00
36454;BME280;22478;51.740;-1.314;2023-05-13T08:22:02;101512.48;;;2.61;100.00
36454;BME280;22478;51.740;-1.314;2023-05-13T08:24:29;101517.53;;;2.73;100.00
36454;BME280;22478;51.740;-1.314;2023-05-13T08:26:56;101516.20;;;3.75;100.00
36454;BME280;22478;51.740;-1.314;2023-05-13T08:29:24;101505.64;;;4.00;100.00
36454;BME280;22478;51.740;-1.314;2023-05-13T08:31:52;101505.76;;;4.47;100.00
36454;BME280;22478;51.740;-1.314;2023-05-13T08:34:19;101510.59;;;1.02;100.00
36454;BME280;22478;51.740;-1.314;2023-05-13T08:36:46;101516.22;;;2.71;100.00
36454;BME280;22478;51.740;-1.314;2023-05-13T08:39:15;101518.44;;;3.49;100.00
36454;BME280;22478;51.740;-1.314;2023-05-13T08:41:43;101509.73;;;3.03;100.00
36454;BME280;22478;51.740;-1.314;2023-05-13T08:44:11;101508.81;;;2.98;100.00
36454;BME280;22478;51.740;-1.314;2023-05-13T08:46:40;101510.46;;;2.57;100.00
36454;BME280;22478;51.740;-1.314;2023-05-13T08:49:10;101497.05;;;5.15;100.00
36454;BME280;22478;51.740;-1.314;2023-05-13T08:51:38;101496.89;;;5.06;100.00
36454;BME280;22478;51.740;-1.314;2023-05-13T08:54:08;101503.63;;;3.91;100.00
36454;BME280;22478;51.740;-1.314;2023-05-13T08:56:36;101502.20;;;4.96;100.00
36454;BME280;22478;51.740;-1.314;2023-05-13T08:59:04;101515.01;;;2.89;100.00
36454;BME280;22478;51.740;-1.314;2023-05-13T09:01:31;101511.57;;;2.82;100.00
36454;BME280;22478;51.740;-1.314;2023-05-13T09:04:00;101515.27;;;3.22;100.00
36454;BME280;22478;51.740;-1.314;2023-05-13T09:06:28;101520.62;;;2.21;100.00
36454;BME280;22478;51.740;-1.314;2023-05-13T09:08:55;101505.45;;;3.81;100.00
36454;BME280;22478;51.740;-1.314;2023-05-13T09:11:22;101505.80;;;4.44;100.00
36454;BME280;22478;51.740;-1.314;2023-05-13T09:13:58;101507.70;;;5.59;100.00
36454;BME280;22478;51.740;-1.314;2023-05-13T09:16:27;101505.73;;;3.98;100.00
36454;BME280;22478;51.740;-1.314;2023-05-13T09:18:57;101508.81;;;4.47;100.00
36454;BME280;22478;51.740;-1.314;2023-05-13T09:21:26;101510.45;;;3.60;100.00
36454;BME280;22478;51.740;-1.314;2023-05-13T09:24:11;101512.52;;;3.61;100.00
36454;BME280;22478;51.740;-1.314;2023-05-13T09:26:40;101510.16;;;4.40;100.00
36454;BME280;22478;51.740;-1.314;2023-05-13T09:29:14;101510.66;;;5.47;100.00
36454;BME280;22478;51.740;-1.314;2023-05-13T09:31:43;101508.68;;;5.16;100.00
36454;BME280;22478;51.740;-1.314;2023-05-13T09:34:10;101511.96;;;4.95;100.00
36454;BME280;22478;51.740;-1.314;2023-05-13T09:36:37;101512.96;;;2.95;100.00
36454;BME280;22478;51.740;-1.314;2023-05-13T09:39:04;101506.24;;;4.96;100.00
36454;BME280;22478;51.740;-1.314;2023-05-13T09:41:33;101508.25;;;4.60;100.00
36454;BME280;22478;51.740;-1.314;2023-05-13T09:44:01;101515.85;;;3.11;100.00
36454;BME280;22478;51.740;-1.314;2023-05-13T09:46:30;101505.92;;;4.83;100.00
36454;BME280;22478;51.740;-1.314;2023-05-13T09:48:58;101511.75;;;3.20;100.00
36454;BME280;22478;51.740;-1.314;2023-05-13T09:51:25;101509.71;;;3.61;100.00
36454;BME280;22478;51.740;-1.314;2023-05-13T09:53:53;101509.21;;;4.23;100.00
36454;BME280;22478;51.740;-1.314;2023-05-13T09:56:22;101516.73;;;3.52;100.00
36454;BME280;22478;51.740;-1.314;2023-05-13T09:58:50;101517.29;;;3.38;100.00
36454;BME280;22478;51.740;-1.314;2023-05-13T10:01:19;101512.93;;;4.88;100.00
36454;BME280;22478;51.740;-1.314;2023-05-13T10:03:46;101503.33;;;6.31;100.00
36454;BME280;22478;51.740;-1.314;2023-05-13T10:06:14;101501.00;;;6.83;100.00
36454;BME280;22478;51.740;-1.314;2023-05-13T10:08:43;101504.84;;;4.77;100.00
36454;BME280;22478;51.740;-1.314;2023-05-13T10:11:12;101511.50;;;4.56;100.00
36454;BME280;22478;51.740;-1.314;2023-05-13T10:13:39;101509.82;;;4.60;100.00
36454;BME280;22478;51.740;-1.314;2023-05-13T10:16:08;101520.61;;;2.70;100.00
36454;BME280;22478;51.740;-1.314;2023-05-13T10:18:35;101506.02;;;5.48;100.00
36454;BME280;22478;51.740;-1.314;2023-05-13T10:21:03;101509.64;;;4.86;100.00
36454;BME280;22478;51.740;-1.314;2023-05-13T10:23:32;101510.54;;;4.40;100.00
36454;BME280;22478;51.740;-1.314;2023-05-13T10:26:00;101504.21;;;5.45;100.00
36454;BME280;22478;51.740;-1.314;2023-05-13T10:28:28;101509.38;;;5.35;100.00
36454;BME280;22478;51.740;-1.314;2023-05-13T10:30:56;101499.49;;;5.20;100.00
36454;BME280;22478;51.740;-1.314;2023-05-13T10:33:24;101504.90;;;3.27;100.00
36454;BME280;22478;51.740;-1.314;2023-05-13T10:36:03;101499.41;;;5.09;100.00
36454;BME280;22478;51.740;-1.314;2023-05-13T10:38:47;101490.85;;;6.73;100.00
36454;BME280;22478;51.740;-1.314;2023-05-13T10:41:34;101486.83;;;6.55;100.00
36454;BME280;22478;51.740;-1.314;2023-05-13T10:44:05;101487.66;;;5.34;100.00
36454;BME280;22478;51.740;-1.314;2023-05-13T10:46:33;101497.46;;;4.27;100.00
36454;BME280;22478;51.740;-1.314;2023-05-13T10:49:01;101501.65;;;3.38;100.00
36454;BME280;22478;51.740;-1.314;2023-05-13T10:51:28;101499.40;;;4.22;100.00
36454;BME280;22478;51.740;-1.314;2023-05-13T10:53:56;101491.46;;;5.41;100.00
36454;BME280;22478;51.740;-1.314;2023-05-13T10:56:26;101492.87;;;4.16;100.00
36454;BME280;22478;51.740;-1.314;2023-05-13T10:58:57;101484.64;;;6.78;100.00
36454;BME280;22478;51.740;-1.314;2023-05-13T11:01:27;101480.73;;;5.76;100.00
36454;BME280;22478;51.740;-1.314;2023-05-13T11:03:55;101481.61;;;5.29;100.00
36454;BME280;22478;51.740;-1.314;2023-05-13T11:06:27;101479.42;;;6.28;100.00
36454;BME280;22478;51.740;-1.314;2023-05-13T11:08:55;101478.14;;;5.82;100.00
36454;BME280;22478;51.740;-1.314;2023-05-13T11:11:25;101476.00;;;5.52;100.00
36454;BME280;22478;51.740;-1.314;2023-05-13T11:13:54;101473.40;;;4.45;100.00
36454;BME280;22478;51.740;-1.314;2023-05-13T11:16:21;101475.82;;;5.02;100.00
36454;BME280;22478;51.740;-1.314;2023-05-13T11:18:50;101476.19;;;6.92;100.00
36454;BME280;22478;51.740;-1.314;2023-05-13T11:21:29;101479.42;;;6.09;100.00
36454;BME280;22478;51.740;-1.314;2023-05-13T11:23:58;101473.36;;;7.85;100.00
36454;BME280;22478;51.740;-1.314;2023-05-13T11:26:42;101481.00;;;4.18;100.00
36454;BME280;22478;51.740;-1.314;2023-05-13T11:29:10;101477.72;;;7.10;100.00
36454;BME280;22478;51.740;-1.314;2023-05-13T11:31:46;101478.58;;;5.43;100.00
36454;BME280;22478;51.740;-1.314;2023-05-13T11:34:15;101479.01;;;5.03;100.00
36454;BME280;22478;51.740;-1.314;2023-05-13T11:36:45;101476.25;;;5.16;100.00
36454;BME280;22478;51.740;-1.314;2023-05-13T11:39:15;101477.17;;;5.21;100.00
36454;BME280;22478;51.740;-1.314;2023-05-13T11:41:44;101477.64;;;6.71;100.00
36454;BME280;22478;51.740;-1.314;2023-05-13T11:44:13;101476.47;;;7.29;100.00
36454;BME280;22478;51.740;-1.314;2023-05-13T11:46:50;101472.67;;;7.93;100.00
36454;BME280;22478;51.740;-1.314;2023-05-13T11:49:34;101476.68;;;5.43;100.00
36454;BME280;22478;51.740;-1.314;2023-05-13T11:52:03;101471.40;;;6.21;100.00
36454;BME280;22478;51.740;-1.314;2023-05-13T11:54:31;101468.77;;;7.35;100.00
36454;BME280;22478;51.740;-1.314;2023-05-13T11:56:58;101475.25;;;6.93;100.00
36454;BME280;22478;51.740;-1.314;2023-05-13T11:59:26;101470.55;;;7.14;100.00
36454;BME280;22478;51.740;-1.314;2023-05-13T12:02:01;101467.11;;;7.56;100.00
36454;BME280;22478;51.740;-1.314;2023-05-13T12:04:29;101472.54;;;5.44;100.00
36454;BME280;22478;51.740;-1.314;2023-05-13T12:06:57;101465.03;;;8.00;100.00
36454;BME280;22478;51.740;-1.314;2023-05-13T12:09:24;101465.80;;;6.50;100.00
36454;BME280;22478;51.740;-1.314;2023-05-13T12:11:52;101464.17;;;6.60;100.00
36454;BME280;22478;51.740;-1.314;2023-05-13T12:14:20;101455.76;;;8.28;100.00
36454;BME280;22478;51.740;-1.314;2023-05-13T12:16:48;101463.25;;;5.62;100.00
36454;BME280;22478;51.740;-1.314;2023-05-13T12:19:19;101459.02;;;5.89;100.00
36454;BME280;22478;51.740;-1.314;2023-05-13T12:21:48;101454.47;;;7.62;100.00
36454;BME280;22478;51.740;-1.314;2023-05-13T12:24:18;101458.00;;;5.25;100.00
36454;BME280;22478;51.740;-1.314;2023-05-13T12:26:46;101456.86;;;6.52;100.00
36454;BME280;22478;51.740;-1.314;2023-05-13T12:29:14;101446.23;;;7.79;100.00
36454;BME280;22478;51.740;-1.314;2023-05-13T12:31:42;101452.19;;;6.69;100.00
36454;BME280;22478;51.740;-1.314;2023-05-13T12:34:30;101445.04;;;8.34;100.00
36454;BME280;22478;51.740;-1.314;2023-05-13T12:37:08;101456.39;;;5.67;100.00
36454;BME280;22478;51.740;-1.314;2023-05-13T12:39:35;101442.60;;;8.05;100.00
36454;BME280;22478;51.740;-1.314;2023-05-13T12:42:03;101436.49;;;9.56;100.00
36454;BME280;22478;51.740;-1.314;2023-05-13T12:44:31;101439.13;;;7.46;100.00
36454;BME280;22478;51.740;-1.314;2023-05-13T12:46:58;101439.82;;;8.14;100.00